Time;durP1;ratioP1;P1;durP2;ratioP2;P2;SDS_P1;SDS_P2;PMS_P1;PMS_P2;Temp;Humidity;BMP_temperature;BMP_pressure;BME280_temperature;BME280_humidity;BME280_pressure;Samples;Min_cycle;Max_cycle;Signal;HPM_P1;HPM_P2
2023/06/11 00:01:52;;;;;;;;;;;;;;;22.71;33.20;101502.16;4185762;28;19977;-67
2023/06/11 00:03:55;;;;;;;;;;;;;;;22.67;33.08;101510.88;4185578;28;20003;-65
2023/06/11 00:05:58;;;;;;;;;;;;;;;22.64;33.44;101508.63;4185413;28;20561;-64
2023/06/11 00:08:00;;;;;;;;;;;;;;;22.62;33.57;101508.03;4183999;28;19928;-63
2023/06/11 00:10:03;;;;;;;;;;;;;;;22.59;33.67;101510.44;4184713;28;20015;-61
2023/06/11 00:12:08;;;;;;;;;;;;;;;22.52;33.98;101510.50;4184003;28;20050;-63
2023/06/11 00:14:10;;;;;;;;;;;;;;;22.48;34.27;101515.66;4188039;28;20455;-62
2023/06/11 00:16:12;;;;;;;;;;;;;;;22.48;34.26;101514.84;4187120;28;20023;-62
2023/06/11 00:18:16;;;;;;;;;;;;;;;22.46;34.49;101514.22;4188254;28;20059;-63
2023/06/11 00:20:20;;;;;;;;;;;;;;;22.41;34.47;101511.34;4187754;28;20019;-63
2023/06/11 00:22:26;;;;;;;;;;;;;;;22.38;34.85;101511.81;4187247;28;20015;-63
2023/06/11 00:24:28;;;;;;;;;;;;;;;22.34;34.80;101511.47;4188073;28;20023;-66
2023/06/11 00:26:30;;;;;;;;;;;;;;;22.37;34.93;101512.91;4187932;28;20027;-64
2023/06/11 00:28:32;;;;;;;;;;;;;;;22.37;34.86;101502.75;4188555;28;19970;-65
2023/06/11 00:30:34;;;;;;;;;;;;;;;22.33;35.11;101507.03;4178581;28;20020;-64
2023/06/11 00:32:36;;;;;;;;;;;;;;;22.29;35.30;101508.56;4187029;28;20016;-67
2023/06/11 00:34:38;;;;;;;;;;;;;;;22.30;35.48;101507.50;4188028;28;20024;-61
2023/06/11 00:36:42;;;;;;;;;;;;;;;22.30;35.52;101508.38;4187845;28;20044;-63
2023/06/11 00:38:44;;;;;;;;;;;;;;;22.26;35.58;101504.38;4187677;28;20026;-61
2023/06/11 00:40:46;;;;;;;;;;;;;;;22.27;35.44;101507.94;4186849;28;20019;-64
2023/06/11 00:42:50;;;;;;;;;;;;;;;22.26;35.32;101503.53;4187520;28;20027;-63
2023/06/11 00:44:54;;;;;;;;;;;;;;;22.18;35.86;101517.63;4218013;28;20022;-62
2023/06/11 00:46:57;;;;;;;;;;;;;;;22.09;36.02;101515.22;4220094;28;20030;-63
2023/06/11 00:49:00;;;;;;;;;;;;;;;22.08;35.93;101508.03;4187964;28;19940;-64
2023/06/11 00:51:02;;;;;;;;;;;;;;;22.02;36.13;101508.13;4218391;28;20034;-63
2023/06/11 00:53:05;;;;;;;;;;;;;;;21.98;36.30;101509.69;4153167;28;20546;-64
2023/06/11 00:55:08;;;;;;;;;;;;;;;21.92;36.51;101508.72;4217650;28;20011;-63
2023/06/11 00:57:11;;;;;;;;;;;;;;;21.86;36.56;101513.22;4218768;28;20014;-61
2023/06/11 00:59:13;;;;;;;;;;;;;;;21.86;36.80;101523.38;4218857;28;20019;-63
2023/06/11 01:01:17;;;;;;;;;;;;;;;21.83;36.51;101518.34;4187829;28;20362;-63
2023/06/11 01:03:21;;;;;;;;;;;;;;;21.81;36.99;101518.59;4186539;28;20011;-63
2023/06/11 01:05:23;;;;;;;;;;;;;;;21.85;36.77;101518.94;4186385;28;20018;-62
2023/06/11 01:07:26;;;;;;;;;;;;;;;21.81;36.75;101517.75;4187247;28;20361;-64
2023/06/11 01:09:30;;;;;;;;;;;;;;;21.78;36.85;101519.88;4187454;28;19925;-64
2023/06/11 01:11:35;;;;;;;;;;;;;;;21.76;36.79;101521.22;4170124;28;20015;-65
2023/06/11 01:13:41;;;;;;;;;;;;;;;21.74;36.82;101524.19;4185150;28;20461;-64
2023/06/11 01:15:43;;;;;;;;;;;;;;;21.73;36.69;101521.66;4218796;28;20393;-64
2023/06/11 01:17:47;;;;;;;;;;;;;;;21.71;37.06;101515.56;4186340;28;20055;-65
2023/06/11 01:19:56;;;;;;;;;;;;;;;21.66;37.10;101529.16;4186904;28;20421;-65
2023/06/11 01:21:59;;;;;;;;;;;;;;;21.63;37.21;101530.47;4185068;28;20029;-64
2023/06/11 01:24:07;;;;;;;;;;;;;;;21.64;37.39;101523.06;4200384;28;20458;-64
2023/06/11 01:26:19;;;;;;;;;;;;;;;21.63;37.39;101530.47;4185961;28;20031;-64
2023/06/11 01:28:26;;;;;;;;;;;;;;;21.62;37.10;101530.72;4187470;28;20032;-65
2023/06/11 01:30:30;;;;;;;;;;;;;;;21.54;37.39;101524.44;4218548;28;19924;-65
2023/06/11 01:32:33;;;;;;;;;;;;;;;21.44;37.34;101529.59;4160981;28;20017;-65
2023/06/11 01:34:41;;;;;;;;;;;;;;;21.42;37.31;101532.59;4167071;28;20024;-65
2023/06/11 01:36:46;;;;;;;;;;;;;;;21.40;37.36;101526.50;4218414;28;20027;-65
2023/06/11 01:38:51;;;;;;;;;;;;;;;21.37;37.59;101526.94;4185551;28;20015;-65
2023/06/11 01:41:08;;;;;;;;;;;;;;;21.34;37.63;101535.66;4185193;28;20023;-65
2023/06/11 01:43:10;;;;;;;;;;;;;;;21.35;37.79;101531.84;4201641;28;20453;-65
2023/06/11 01:45:16;;;;;;;;;;;;;;;21.34;37.61;101534.81;4185925;28;20015;-65
2023/06/11 01:47:18;;;;;;;;;;;;;;;21.28;37.80;101528.31;4186494;28;20084;-65
2023/06/11 01:49:20;;;;;;;;;;;;;;;21.24;38.02;101538.94;4185986;28;20361;-65
2023/06/11 01:51:22;;;;;;;;;;;;;;;21.21;37.98;101538.56;4186306;28;20490;-65
2023/06/11 01:53:25;;;;;;;;;;;;;;;21.15;38.28;101536.72;4186233;28;20027;-65
2023/06/11 01:55:28;;;;;;;;;;;;;;;21.04;38.30;101530.09;4184096;28;20020;-65
2023/06/11 01:57:32;;;;;;;;;;;;;;;21.03;38.40;101542.13;4201955;28;20014;-65
2023/06/11 01:59:34;;;;;;;;;;;;;;;21.01;38.56;101533.28;4217421;28;20018;-65
2023/06/11 02:01:38;;;;;;;;;;;;;;;20.95;38.61;101535.03;4162239;28;20072;-65
2023/06/11 02:03:40;;;;;;;;;;;;;;;20.88;38.81;101534.28;4200443;28;20031;-64
2023/06/11 02:05:43;;;;;;;;;;;;;;;20.82;38.85;101537.91;4186490;28;19998;-65
2023/06/11 02:07:45;;;;;;;;;;;;;;;20.81;38.86;101536.22;4179272;28;20587;-65
2023/06/11 02:09:47;;;;;;;;;;;;;;;20.82;38.57;101538.75;4201339;28;20019;-64
2023/06/11 02:11:49;;;;;;;;;;;;;;;20.86;38.83;101536.38;4186183;28;20377;-63
2023/06/11 02:13:51;;;;;;;;;;;;;;;20.89;38.43;101538.69;4186294;28;20032;-64
2023/06/11 02:15:53;;;;;;;;;;;;;;;20.83;38.46;101540.44;4185149;28;20024;-65
2023/06/11 02:17:57;;;;;;;;;;;;;;;20.86;38.55;101545.47;4201764;28;20022;-65
2023/06/11 02:19:59;;;;;;;;;;;;;;;20.88;38.53;101539.75;4177683;28;20077;-65
2023/06/11 02:22:01;;;;;;;;;;;;;;;20.90;38.51;101539.53;4200395;28;20035;-65
2023/06/11 02:24:03;;;;;;;;;;;;;;;20.85;38.59;101540.22;4185937;28;20023;-65
2023/06/11 02:26:05;;;;;;;;;;;;;;;20.78;38.73;101534.75;4217848;28;20022;-65
2023/06/11 02:28:07;;;;;;;;;;;;;;;20.76;38.95;101536.06;4186452;28;20027;-65
2023/06/11 02:30:10;;;;;;;;;;;;;;;20.72;38.78;101535.69;4167986;28;20043;-65
2023/06/11 02:32:13;;;;;;;;;;;;;;;20.62;39.08;101533.41;4176952;28;20676;-64
2023/06/11 02:34:16;;;;;;;;;;;;;;;20.49;39.25;101545.34;4184288;28;20024;-66
2023/06/11 02:36:18;;;;;;;;;;;;;;;20.40;39.61;101545.84;4185162;28;20027;-65
2023/06/11 02:38:21;;;;;;;;;;;;;;;20.32;39.78;101550.53;4201622;28;20051;-65
2023/06/11 02:40:23;;;;;;;;;;;;;;;20.22;40.04;101543.84;4185397;28;20019;-65
2023/06/11 02:42:25;;;;;;;;;;;;;;;20.14;40.13;101543.09;4183741;28;20031;-63
2023/06/11 02:44:27;;;;;;;;;;;;;;;20.09;40.25;101547.53;4185685;28;20369;-64
2023/06/11 02:46:30;;;;;;;;;;;;;;;20.07;40.51;101547.75;4184938;28;20019;-64
2023/06/11 02:48:32;;;;;;;;;;;;;;;20.08;40.24;101554.09;4185843;28;20430;-62
2023/06/11 02:50:35;;;;;;;;;;;;;;;20.01;40.76;101556.03;4184210;28;20039;-62
2023/06/11 02:52:38;;;;;;;;;;;;;;;19.94;40.56;101550.59;4200738;28;20019;-61
2023/06/11 02:54:40;;;;;;;;;;;;;;;19.90;40.87;101563.03;4185029;28;20450;-62
2023/06/11 02:56:43;;;;;;;;;;;;;;;19.79;41.18;101562.66;4185790;28;20051;-64
2023/06/11 02:58:47;;;;;;;;;;;;;;;19.77;41.32;101562.06;4185536;28;20365;-64
2023/06/11 03:00:49;;;;;;;;;;;;;;;19.78;41.17;101563.75;4184798;28;20044;-63
2023/06/11 03:02:51;;;;;;;;;;;;;;;19.80;41.04;101564.34;4200116;28;20030;-63
2023/06/11 03:04:59;;;;;;;;;;;;;;;19.75;41.14;101561.41;4184243;28;20016;-64
2023/06/11 03:07:02;;;;;;;;;;;;;;;19.67;41.42;101563.53;4201096;28;20056;-62
2023/06/11 03:09:05;;;;;;;;;;;;;;;19.61;41.69;101566.09;4200113;28;20007;-64
2023/06/11 03:11:07;;;;;;;;;;;;;;;19.62;41.61;101562.31;4184890;28;20063;-64
2023/06/11 03:13:13;;;;;;;;;;;;;;;19.60;41.54;101556.19;4181698;28;19943;-63
2023/06/11 03:15:16;;;;;;;;;;;;;;;19.62;41.68;101556.84;4167804;28;20013;-63
2023/06/11 03:17:18;;;;;;;;;;;;;;;19.71;41.36;101562.06;4200884;28;20027;-63
2023/06/11 03:19:20;;;;;;;;;;;;;;;19.72;41.11;101563.75;4185207;28;20020;-63
2023/06/11 03:21:24;;;;;;;;;;;;;;;19.64;41.41;101562.09;4184122;28;20011;-62
2023/06/11 03:23:28;;;;;;;;;;;;;;;19.51;41.67;101562.13;4184718;28;20375;-64
2023/06/11 03:25:30;;;;;;;;;;;;;;;19.44;41.93;101565.75;4216129;28;20007;-63
2023/06/11 03:27:32;;;;;;;;;;;;;;;19.40;41.91;101569.13;4184267;28;20018;-63
2023/06/11 03:29:34;;;;;;;;;;;;;;;19.35;42.12;101561.56;4159979;28;20051;-63
2023/06/11 03:31:37;;;;;;;;;;;;;;;19.35;41.98;101568.94;4185866;28;20032;-63
2023/06/11 03:33:39;;;;;;;;;;;;;;;19.37;41.70;101566.81;4199785;28;20409;-64
2023/06/11 03:35:41;;;;;;;;;;;;;;;19.33;41.73;101569.16;4185839;28;20019;-65
2023/06/11 03:37:52;;;;;;;;;;;;;;;19.30;41.98;101563.28;4217360;28;20031;-64
2023/06/11 03:39:59;;;;;;;;;;;;;;;19.30;41.96;101566.84;4184051;28;20016;-64
2023/06/11 03:42:02;;;;;;;;;;;;;;;19.29;42.24;101565.16;4183672;28;20024;-64
2023/06/11 03:44:06;;;;;;;;;;;;;;;19.26;42.18;101566.44;4200116;28;20382;-64
2023/06/11 03:46:09;;;;;;;;;;;;;;;19.27;42.08;101568.09;4185679;28;20600;-64
2023/06/11 03:48:11;;;;;;;;;;;;;;;19.30;42.06;101566.84;4187615;28;20387;-64
2023/06/11 03:50:13;;;;;;;;;;;;;;;19.34;42.05;101573.59;4188404;28;20008;-63
2023/06/11 03:52:16;;;;;;;;;;;;;;;19.32;41.75;101572.09;4186308;28;20416;-65
2023/06/11 03:54:18;;;;;;;;;;;;;;;19.33;41.79;101571.06;4203114;28;20351;-63
2023/06/11 03:56:22;;;;;;;;;;;;;;;19.35;41.89;101571.69;4219921;28;20030;-63
2023/06/11 03:58:24;;;;;;;;;;;;;;;19.41;41.84;101573.56;4188714;28;20033;-64
2023/06/11 04:00:30;;;;;;;;;;;;;;;19.49;41.60;101577.97;4186964;28;20000;-64
2023/06/11 04:02:32;;;;;;;;;;;;;;;19.52;41.66;101581.09;4186840;28;20367;-63
2023/06/11 04:04:35;;;;;;;;;;;;;;;19.56;41.50;101578.75;4203435;28;20018;-64
2023/06/11 04:06:37;;;;;;;;;;;;;;;19.55;41.30;101588.06;4163260;28;20032;-63
2023/06/11 04:08:40;;;;;;;;;;;;;;;19.54;41.38;101583.63;4187162;28;20023;-61
2023/06/11 04:10:42;;;;;;;;;;;;;;;19.48;41.76;101581.75;4203633;28;20027;-64
2023/06/11 04:12:46;;;;;;;;;;;;;;;19.45;41.74;101577.53;4188001;28;20864;-62
2023/06/11 04:14:48;;;;;;;;;;;;;;;19.46;41.47;101579.22;4218493;28;20414;-64
2023/06/11 04:16:52;;;;;;;;;;;;;;;19.46;41.79;101581.97;4219727;28;20442;-61
2023/06/11 04:18:54;;;;;;;;;;;;;;;19.50;41.61;101585.09;4187770;28;20031;-64
2023/06/11 04:20:56;;;;;;;;;;;;;;;19.55;41.42;101585.31;4186932;28;20032;-62
2023/06/11 04:22:58;;;;;;;;;;;;;;;19.58;41.96;101582.97;4202128;28;20026;-62
2023/06/11 04:25:00;;;;;;;;;;;;;;;19.57;41.61;101584.03;4187172;28;20027;-63
2023/06/11 04:27:02;;;;;;;;;;;;;;;19.56;41.82;101592.47;4187916;28;20019;-64
2023/06/11 04:29:08;;;;;;;;;;;;;;;19.60;41.40;101590.97;4186563;28;20369;-64
2023/06/11 04:31:11;;;;;;;;;;;;;;;19.61;41.39;101589.94;4186169;28;20015;-62
2023/06/11 04:33:15;;;;;;;;;;;;;;;19.61;41.68;101593.50;4202970;28;20014;-62
2023/06/11 04:35:20;;;;;;;;;;;;;;;19.66;41.86;101592.84;4186203;28;19944;-62
2023/06/11 04:37:23;;;;;;;;;;;;;;;19.70;41.73;101590.50;4219457;28;20018;-63
2023/06/11 04:39:26;;;;;;;;;;;;;;;19.67;41.58;101594.56;4219034;28;20011;-61
2023/06/11 04:41:29;;;;;;;;;;;;;;;19.64;41.55;101600.47;4219529;28;20019;-65
2023/06/11 04:43:33;;;;;;;;;;;;;;;19.61;41.88;101588.03;4187271;28;20470;-64
2023/06/11 04:45:38;;;;;;;;;;;;;;;19.66;41.72;101592.03;4185945;28;20079;-64
2023/06/11 04:47:42;;;;;;;;;;;;;;;19.70;41.76;101594.13;4170371;28;20025;-65
2023/06/11 04:49:52;;;;;;;;;;;;;;;19.71;41.71;101595.78;4202352;28;20011;-65
2023/06/11 04:51:57;;;;;;;;;;;;;;;19.69;41.90;101588.84;4218263;28;20039;-65
2023/06/11 04:54:00;;;;;;;;;;;;;;;19.70;41.85;101587.78;4218638;28;20027;-65
2023/06/11 04:56:04;;;;;;;;;;;;;;;19.71;41.46;101584.00;4186620;28;19928;-64
2023/06/11 04:58:09;;;;;;;;;;;;;;;19.72;41.53;101594.72;4202482;28;20076;-64
2023/06/11 05:00:13;;;;;;;;;;;;;;;19.71;41.67;101593.03;4218472;28;20015;-62
2023/06/11 05:02:19;;;;;;;;;;;;;;;19.72;41.65;101591.16;4187204;28;20015;-65
2023/06/11 05:04:21;;;;;;;;;;;;;;;19.73;41.44;101590.94;4217432;28;20022;-64
2023/06/11 05:06:23;;;;;;;;;;;;;;;19.75;41.52;101588.81;4202271;28;20020;-64
2023/06/11 05:08:28;;;;;;;;;;;;;;;19.78;41.23;101591.16;4178311;28;20032;-65
2023/06/11 05:10:33;;;;;;;;;;;;;;;19.79;41.37;101583.75;4202526;28;20426;-64
2023/06/11 05:12:35;;;;;;;;;;;;;;;19.79;41.25;101587.34;4214018;28;20011;-64
2023/06/11 05:14:37;;;;;;;;;;;;;;;19.78;41.69;101591.16;4218532;28;20551;-65
2023/06/11 05:16:40;;;;;;;;;;;;;;;19.79;41.34;101589.25;4169776;28;19925;-64
2023/06/11 05:18:44;;;;;;;;;;;;;;;19.79;41.48;101594.72;4218283;28;20381;-65
2023/06/11 05:20:47;;;;;;;;;;;;;;;19.80;41.51;101596.41;4179592;28;20023;-64
2023/06/11 05:22:53;;;;;;;;;;;;;;;19.82;41.58;101593.47;4201587;28;20012;-64
2023/06/11 05:24:55;;;;;;;;;;;;;;;19.82;41.98;101597.03;4187106;28;20007;-62
2023/06/11 05:26:59;;;;;;;;;;;;;;;19.84;41.79;101592.16;4185868;28;20395;-65
2023/06/11 05:29:06;;;;;;;;;;;;;;;19.86;41.75;101589.19;4193944;28;20346;-65
2023/06/11 05:31:11;;;;;;;;;;;;;;;19.88;41.75;101595.34;4169518;28;20043;-65
2023/06/11 05:33:13;;;;;;;;;;;;;;;19.88;41.67;101596.16;4201294;28;20007;-65
2023/06/11 05:35:19;;;;;;;;;;;;;;;19.90;41.66;101601.44;4186796;28;20031;-64
2023/06/11 05:37:22;;;;;;;;;;;;;;;19.92;41.48;101604.78;4185427;28;19982;-64
2023/06/11 05:39:24;;;;;;;;;;;;;;;19.91;41.90;101598.47;4218685;28;20003;-64
2023/06/11 05:41:26;;;;;;;;;;;;;;;19.95;41.67;101593.38;4177533;28;20395;-64
2023/06/11 05:43:29;;;;;;;;;;;;;;;19.98;41.96;101595.69;4201477;28;20016;-64
2023/06/11 05:45:31;;;;;;;;;;;;;;;20.00;41.94;101593.59;4217841;28;20366;-64
2023/06/11 05:47:35;;;;;;;;;;;;;;;20.00;41.97;101599.06;4185905;28;20011;-64
2023/06/11 05:49:37;;;;;;;;;;;;;;;20.05;41.60;101599.25;4185158;28;20418;-65
2023/06/11 05:51:40;;;;;;;;;;;;;;;20.05;41.44;101587.44;4183698;28;20012;-65
2023/06/11 05:53:43;;;;;;;;;;;;;;;20.10;41.49;101602.16;4218052;28;20019;-64
2023/06/11 05:55:45;;;;;;;;;;;;;;;20.12;41.38;101608.25;4178422;28;20015;-64
2023/06/11 05:57:48;;;;;;;;;;;;;;;20.14;41.75;101605.28;4201970;28;19963;-65
2023/06/11 05:59:50;;;;;;;;;;;;;;;20.20;41.72;101607.16;4217961;28;20456;-66
2023/06/11 06:01:54;;;;;;;;;;;;;;;20.26;41.47;101602.69;4184855;28;20011;-65
2023/06/11 06:03:58;;;;;;;;;;;;;;;20.30;41.51;101602.03;4201019;28;20019;-65
2023/06/11 06:06:01;;;;;;;;;;;;;;;20.35;41.61;101612.34;4200847;28;20051;-64
2023/06/11 06:08:05;;;;;;;;;;;;;;;20.39;41.28;101604.50;4185374;28;20643;-64
2023/06/11 06:10:07;;;;;;;;;;;;;;;20.41;41.37;101613.38;4184039;28;19960;-64
2023/06/11 06:12:10;;;;;;;;;;;;;;;20.44;41.43;101611.03;4167956;28;20047;-64
2023/06/11 06:14:12;;;;;;;;;;;;;;;20.46;40.98;101605.31;4177458;28;20014;-65
2023/06/11 06:16:15;;;;;;;;;;;;;;;20.47;41.46;101604.25;4201583;28;20434;-64
2023/06/11 06:18:17;;;;;;;;;;;;;;;20.50;41.22;101612.03;4185308;28;19975;-65
2023/06/11 06:20:20;;;;;;;;;;;;;;;20.54;41.24;101613.28;4184406;28;20445;-64
2023/06/11 06:22:22;;;;;;;;;;;;;;;20.52;40.98;101602.53;4185554;28;20019;-64
2023/06/11 06:24:25;;;;;;;;;;;;;;;20.54;41.22;101607.78;4167784;28;20492;-63
2023/06/11 06:26:28;;;;;;;;;;;;;;;20.57;41.43;101604.59;4201631;28;20031;-65
2023/06/11 06:28:32;;;;;;;;;;;;;;;20.57;41.20;101596.38;4161242;28;20032;-64
2023/06/11 06:30:34;;;;;;;;;;;;;;;20.64;41.28;101599.94;4186231;28;20126;-65
2023/06/11 06:32:38;;;;;;;;;;;;;;;20.67;40.81;101602.25;4184112;28;20541;-65
2023/06/11 06:34:41;;;;;;;;;;;;;;;20.72;40.86;101603.47;4201078;28;20453;-63
2023/06/11 06:36:46;;;;;;;;;;;;;;;20.76;40.76;101607.44;4217728;28;20030;-65
2023/06/11 06:38:48;;;;;;;;;;;;;;;20.76;40.83;101600.03;4183994;28;20360;-63
2023/06/11 06:40:52;;;;;;;;;;;;;;;20.79;41.03;101615.22;4216385;28;20477;-64
2023/06/11 06:42:55;;;;;;;;;;;;;;;20.84;41.25;101608.00;4185773;28;20040;-64
2023/06/11 06:45:04;;;;;;;;;;;;;;;20.90;40.86;101605.44;4217510;28;20026;-62
2023/06/11 06:47:07;;;;;;;;;;;;;;;20.91;40.61;101599.72;4170234;28;20604;-66
2023/06/11 06:49:09;;;;;;;;;;;;;;;20.95;40.64;101600.94;4183932;28;20027;-64
2023/06/11 06:51:11;;;;;;;;;;;;;;;20.97;40.69;101604.31;4200672;28;20023;-65
2023/06/11 06:53:16;;;;;;;;;;;;;;;21.00;40.44;101609.34;4184067;28;20020;-64
2023/06/11 06:55:20;;;;;;;;;;;;;;;21.01;40.63;101602.78;4184272;28;20015;-64
2023/06/11 06:57:24;;;;;;;;;;;;;;;21.02;40.38;101607.22;4201022;28;20019;-65
2023/06/11 06:59:27;;;;;;;;;;;;;;;21.05;40.88;101606.75;4200475;28;19932;-64
2023/06/11 07:01:29;;;;;;;;;;;;;;;21.10;40.73;101611.56;4200886;28;20027;-65
2023/06/11 07:03:33;;;;;;;;;;;;;;;21.11;40.88;101609.66;4199831;28;20038;-64
2023/06/11 07:05:35;;;;;;;;;;;;;;;21.16;40.37;101612.56;4217253;28;20015;-65
2023/06/11 07:07:40;;;;;;;;;;;;;;;21.19;40.22;101610.22;4217482;28;20018;-64
2023/06/11 07:09:42;;;;;;;;;;;;;;;21.20;40.28;101602.81;4184382;28;20024;-65
2023/06/11 07:11:46;;;;;;;;;;;;;;;21.22;40.50;101606.16;4183725;28;20022;-65
2023/06/11 07:13:50;;;;;;;;;;;;;;;21.22;40.41;101608.91;4166532;28;20012;-64
2023/06/11 07:15:52;;;;;;;;;;;;;;;21.26;40.84;101609.31;4185661;28;20633;-66
2023/06/11 07:17:54;;;;;;;;;;;;;;;21.29;40.26;101606.13;4183514;28;20011;-65
2023/06/11 07:19:56;;;;;;;;;;;;;;;21.32;40.70;101611.97;4199029;28;20458;-65
2023/06/11 07:21:59;;;;;;;;;;;;;;;21.36;40.52;101604.97;4201640;28;20047;-64
2023/06/11 07:24:04;;;;;;;;;;;;;;;21.42;40.39;101614.19;4216996;28;20011;-64
2023/06/11 07:26:06;;;;;;;;;;;;;;;21.46;40.61;101609.94;4186998;28;20027;-64
2023/06/11 07:28:11;;;;;;;;;;;;;;;21.50;40.43;101605.66;4203768;28;20024;-64
2023/06/11 07:30:15;;;;;;;;;;;;;;;21.55;40.49;101597.59;4220538;28;20851;-64
2023/06/11 07:32:17;;;;;;;;;;;;;;;21.59;40.25;101596.06;4188452;28;20035;-64
2023/06/11 07:34:21;;;;;;;;;;;;;;;21.63;40.10;101598.34;4187114;28;20020;-64
2023/06/11 07:36:25;;;;;;;;;;;;;;;21.66;40.49;101601.50;4204499;28;20080;-64
2023/06/11 07:38:29;;;;;;;;;;;;;;;21.69;40.31;101606.53;4219863;28;20019;-64
2023/06/11 07:40:31;;;;;;;;;;;;;;;21.73;40.45;101595.91;4186998;28;20019;-65
2023/06/11 07:42:33;;;;;;;;;;;;;;;21.77;40.13;101608.09;4202721;28;20019;-64
2023/06/11 07:44:35;;;;;;;;;;;;;;;21.80;40.29;101609.56;4188610;28;20027;-64
2023/06/11 07:46:40;;;;;;;;;;;;;;;21.83;40.20;101611.84;4188990;28;20032;-65
2023/06/11 07:48:43;;;;;;;;;;;;;;;21.87;40.26;101613.91;4220087;28;20014;-65
2023/06/11 07:50:45;;;;;;;;;;;;;;;21.91;40.03;101608.78;4187153;28;20079;-64
2023/06/11 07:52:50;;;;;;;;;;;;;;;21.94;39.89;101597.31;4170228;28;20023;-65
2023/06/11 07:54:59;;;;;;;;;;;;;;;21.97;39.96;101610.59;4203250;28;20031;-65
2023/06/11 07:57:01;;;;;;;;;;;;;;;21.98;39.85;101604.03;4188747;28;20028;-64
2023/06/11 07:59:03;;;;;;;;;;;;;;;21.99;39.89;101607.63;4187843;28;20466;-63
2023/06/11 08:01:06;;;;;;;;;;;;;;;22.02;39.88;101601.66;4188364;28;19924;-63
2023/06/11 08:03:09;;;;;;;;;;;;;;;22.07;40.05;101607.28;4186268;28;20023;-64
2023/06/11 08:05:17;;;;;;;;;;;;;;;22.10;39.81;101609.56;4187892;28;20049;-64
2023/06/11 08:07:19;;;;;;;;;;;;;;;22.09;39.79;101600.47;4188196;28;20028;-63
2023/06/11 08:09:21;;;;;;;;;;;;;;;22.18;39.85;101609.25;4188275;28;20018;-63
2023/06/11 08:11:23;;;;;;;;;;;;;;;22.22;39.89;101604.13;4188609;28;20584;-63
2023/06/11 08:13:25;;;;;;;;;;;;;;;22.25;39.71;101604.47;4188020;28;20352;-64
2023/06/11 08:15:27;;;;;;;;;;;;;;;22.30;39.67;101599.16;4188092;28;20015;-64
2023/06/11 08:17:29;;;;;;;;;;;;;;;22.33;39.68;101606.09;4188458;28;20447;-64
2023/06/11 08:19:32;;;;;;;;;;;;;;;22.37;39.67;101598.22;4187680;28;20007;-64
2023/06/11 08:21:35;;;;;;;;;;;;;;;22.40;39.46;101598.59;4187913;28;19924;-63
2023/06/11 08:23:39;;;;;;;;;;;;;;;22.44;39.34;101601.72;4163406;28;20470;-64
2023/06/11 08:25:42;;;;;;;;;;;;;;;22.47;39.34;101606.75;4186919;28;20478;-64
2023/06/11 08:27:44;;;;;;;;;;;;;;;22.50;39.49;101607.09;4186925;28;20016;-64
2023/06/11 08:29:48;;;;;;;;;;;;;;;22.53;39.43;101603.03;4186252;28;20020;-65
2023/06/11 08:31:50;;;;;;;;;;;;;;;22.57;39.36;101595.13;4186810;28;20043;-64
2023/06/11 08:33:52;;;;;;;;;;;;;;;22.59;39.22;101593.84;4185689;28;20035;-63
2023/06/11 08:35:57;;;;;;;;;;;;;;;22.61;39.26;101591.69;4186956;28;20022;-63
2023/06/11 08:37:59;;;;;;;;;;;;;;;22.65;39.08;101601.16;4187362;28;20055;-64
2023/06/11 08:40:01;;;;;;;;;;;;;;;22.66;39.18;101602.84;4186080;28;20435;-64
2023/06/11 08:42:03;;;;;;;;;;;;;;;22.70;39.34;101599.63;4168695;28;20020;-63
2023/06/11 08:44:05;;;;;;;;;;;;;;;22.74;39.32;101592.53;4187139;28;20019;-62
2023/06/11 08:46:09;;;;;;;;;;;;;;;22.78;39.12;101591.81;4187601;28;20015;-64
2023/06/11 08:48:11;;;;;;;;;;;;;;;22.83;38.86;101596.63;4187397;28;20019;-64
2023/06/11 08:50:13;;;;;;;;;;;;;;;22.86;38.63;101590.63;4186546;28;20019;-64
2023/06/11 08:52:17;;;;;;;;;;;;;;;22.86;38.72;101587.88;4185972;28;20019;-63
2023/06/11 08:54:19;;;;;;;;;;;;;;;22.91;38.82;101587.16;4186417;28;20354;-63
2023/06/11 08:56:21;;;;;;;;;;;;;;;22.94;38.80;101586.69;4187106;28;20017;-63
2023/06/11 08:58:23;;;;;;;;;;;;;;;22.95;38.59;101588.38;4184848;28;19979;-61
2023/06/11 09:00:27;;;;;;;;;;;;;;;22.97;38.68;101580.69;4185466;28;20011;-62
2023/06/11 09:02:29;;;;;;;;;;;;;;;23.00;38.56;101578.28;4185352;28;19925;-62
2023/06/11 09:04:31;;;;;;;;;;;;;;;23.02;38.57;101584.44;4185075;28;20035;-62
2023/06/11 09:06:34;;;;;;;;;;;;;;;23.06;38.46;101579.25;4183205;28;20376;-63
2023/06/11 09:08:37;;;;;;;;;;;;;;;23.06;38.57;101578.41;4185402;28;20023;-62
2023/06/11 09:10:47;;;;;;;;;;;;;;;23.09;38.59;101577.97;4184793;28;20683;-63
2023/06/11 09:12:50;;;;;;;;;;;;;;;23.14;38.20;101569.84;4186432;28;20015;-63
2023/06/11 09:14:52;;;;;;;;;;;;;;;23.15;38.33;101569.59;4186596;28;20012;-63
2023/06/11 09:16:55;;;;;;;;;;;;;;;23.18;38.09;101577.38;4185806;28;20019;-63
2023/06/11 09:18:57;;;;;;;;;;;;;;;23.19;38.33;101568.00;4185831;28;20059;-63
2023/06/11 09:21:00;;;;;;;;;;;;;;;23.21;38.21;101556.75;4183618;28;20032;-64
2023/06/11 09:23:02;;;;;;;;;;;;;;;23.26;38.02;101569.81;4183225;28;19947;-61
2023/06/11 09:25:07;;;;;;;;;;;;;;;23.27;37.91;101560.47;4184629;28;20024;-63
2023/06/11 09:27:11;;;;;;;;;;;;;;;23.27;38.00;101565.97;4185950;28;20388;-64
2023/06/11 09:29:13;;;;;;;;;;;;;;;23.26;38.21;101572.56;4185094;28;20347;-62
2023/06/11 09:31:21;;;;;;;;;;;;;;;23.28;38.14;101564.91;4184977;28;20458;-62
2023/06/11 09:33:23;;;;;;;;;;;;;;;23.30;38.30;101558.06;4170556;28;20942;-63
2023/06/11 09:35:25;;;;;;;;;;;;;;;23.34;38.14;101559.25;4184232;28;20020;-62
2023/06/11 09:37:29;;;;;;;;;;;;;;;23.35;38.31;101560.06;4185321;28;20023;-63
2023/06/11 09:39:31;;;;;;;;;;;;;;;23.36;38.39;101559.84;4185817;28;20035;-66
2023/06/11 09:41:34;;;;;;;;;;;;;;;23.44;38.29;101563.31;4185741;28;20031;-63
2023/06/11 09:43:36;;;;;;;;;;;;;;;23.47;38.24;101557.31;4184231;28;19929;-63
2023/06/11 09:45:38;;;;;;;;;;;;;;;23.49;37.87;101553.22;4184674;28;20014;-63
2023/06/11 09:47:40;;;;;;;;;;;;;;;23.52;37.78;101565.69;4186056;28;20016;-64
2023/06/11 09:49:42;;;;;;;;;;;;;;;23.56;37.74;101569.63;4185906;28;20026;-63
2023/06/11 09:51:47;;;;;;;;;;;;;;;23.58;37.67;101553.69;4184946;28;20387;-63
2023/06/11 09:53:49;;;;;;;;;;;;;;;23.57;37.65;101550.09;4185417;28;20023;-64
2023/06/11 09:55:52;;;;;;;;;;;;;;;23.58;38.02;101556.44;4185882;28;19959;-63
2023/06/11 09:57:56;;;;;;;;;;;;;;;23.60;37.83;101545.16;4185586;28;20452;-63
2023/06/11 10:00:04;;;;;;;;;;;;;;;23.65;37.60;101550.78;4184985;28;20004;-64
2023/06/11 10:02:08;;;;;;;;;;;;;;;23.71;37.41;101553.38;4184239;28;19925;-64
2023/06/11 10:04:10;;;;;;;;;;;;;;;23.72;37.54;101557.81;4185208;28;20409;-64
2023/06/11 10:06:14;;;;;;;;;;;;;;;23.73;37.40;101564.16;4185744;28;20040;-64
2023/06/11 10:08:17;;;;;;;;;;;;;;;23.75;37.33;101564.78;4186231;28;20019;-65
2023/06/11 10:10:20;;;;;;;;;;;;;;;23.79;37.39;101565.13;4185013;28;20035;-64
2023/06/11 10:12:51;;;;;;;;;;;;;;;23.80;37.30;101556.59;4185105;28;20043;-69
2023/06/11 10:14:55;;;;;;;;;;;;;;;23.82;37.35;101561.88;4185755;28;20075;-71
2023/06/11 10:17:02;;;;;;;;;;;;;;;23.85;37.48;101566.91;4186037;28;20047;-71
2023/06/11 10:19:05;;;;;;;;;;;;;;;23.89;37.18;101557.09;4185563;28;20016;-73
2023/06/11 10:21:07;;;;;;;;;;;;;;;23.90;37.23;101561.50;4185927;28;20056;-65
2023/06/11 10:23:12;;;;;;;;;;;;;;;23.88;37.31;101552.63;4185335;28;20023;-66
2023/06/11 10:25:15;;;;;;;;;;;;;;;23.89;37.41;101549.63;4185832;28;19972;-66
2023/06/11 10:27:17;;;;;;;;;;;;;;;23.90;37.29;101550.47;4186260;28;20088;-64
2023/06/11 10:29:24;;;;;;;;;;;;;;;23.90;37.29;101542.19;4186081;28;20027;-65
2023/06/11 10:31:29;;;;;;;;;;;;;;;23.93;37.40;101542.56;4186150;28;20351;-65
2023/06/11 10:33:38;;;;;;;;;;;;;;;24.00;37.10;101538.81;4185486;28;20032;-65